EDSBLKKV

Guest
Details From EDSB - Karlsruhe Baden Baden
To LKKV - Karlovy Vary
Flight Number -
Tags decoded
Created
Modified
Stats Distance 276 nm / 511 km
Max Altitude 0 ft / 0 m
Waypoints 3
Social Downloads 0
Likes 0
Share VATSIM

Download

Looking for another format? Having issues loading an existing format? Contact us
Advertisement - Login to hide

Notes

Requested: EDSB MILKA LKKV

Route

EDSB MILKA LKKV

ID Type Via Altitude Latitude Longitude Leg Dist Tot Dist Heading (true) Name
O EDSB APT - 0 ft / 0 m 48.77926˚ 8.08064˚ - 0 nm - Karlsruhe Baden Baden
MILKA FIX - 0 ft / 0 m 47.83755˚ 9.62418˚ 83 nm 83 nm 132° / 133° -
O LKKV APT - 0 ft / 0 m 50.20349˚ 12.91446˚ 192 nm 275 nm 41° / 44° Karlovy Vary

Altitude Profile

Advertisement - Login to hide

Weather


0- 5 10 15 20 25 30 35+ Temperature / ° C

Clouds and Precipitation
Forecast for 2018-05-27 12:00 UTC. Updated an hour ago

Ground ~20,000 ft ~40,000 ft Winds

EDSB

Details ICAO EDSB (FKB)
Name Karlsruhe Baden Baden
Region Germany - Civil
Timezone Europe/Berlin (UTC+2.0)
Stats Elevation 408 ft / 124 m (AMSL)
Location 48.779257° 8.080642°
Runways 1
Magnetic Variation 2.280° E

METAR

EDSB 271150Z VRB03KT CAVOK 27/18 Q1017

Decode

TAF

TAF EDSB 271100Z 2712/2812 VRB03KT 9999 FEW040 BECMG 2712/2715 02005KT PROB30 TEMPO 2712/2720 20015G25KT 3000 TSRAGR BKN040CB

Decode

Departure Runways

ID Width Length Bearing (true) Bearing (mag) Surface Threshold Offset Overrun Length
03 148 ft / 45 m 9,799 ft / 2,987 m 31.69° 29.41° Asphalt 830 ft / 253 m 115 ft / 35 m
21 148 ft / 45 m 9,799 ft / 2,987 m 211.70° 209.42° Asphalt 830 ft / 253 m 115 ft / 35 m

LKKV

Details ICAO LKKV (KLV)
Name Karlovy Vary
Region Czech Republic
Timezone Europe/Prague (UTC+2.0)
Stats Elevation 1,988 ft / 606 m (AMSL)
Location 50.203487° 12.914461°
Runways 2
Magnetic Variation 3.579° E

METAR

LKKV 271200Z 09009KT 9999 SCT046 23/13 Q1021

Decode

TAF

TAF LKKV 271100Z 2712/2818 08006KT CAVOK TEMPO 2712/2718 12014KT 9999 SCT045TCU TEMPO 2810/2818 05014KT 9999 SCT040CB

Decode

Destination Runways

ID Width Length Bearing (true) Bearing (mag) Surface Threshold Offset Overrun Length
11 98 ft / 30 m 7,049 ft / 2,149 m 113.09° 109.51° Asphalt 495 ft / 151 m 0 ft / 0 m
12 98 ft / 30 m 3,351 ft / 1,021 m 113.19° 109.61° Grass 0 ft / 0 m 0 ft / 0 m
29 98 ft / 30 m 7,049 ft / 2,149 m 293.11° 289.53° Asphalt 0 ft / 0 m 0 ft / 0 m
30 98 ft / 30 m 3,351 ft / 1,021 m 293.20° 289.62° Grass 0 ft / 0 m 0 ft / 0 m

Approach Navaids

Runway Type Ident Frequency Range Bearing (true) Bearing (mag) Slope Elevation
29 Localiser KVY 111.55 MHz 18 nm / 33 km 293.13° 289.55° - 1,988 ft / 606 m (AMSL)
29 DME KVY 111.55 MHz 18 nm / 33 km - - - 1,998 ft / 609 m (AMSL)

Popular Alternatives